sensor_id;sensor_type;location;lat;lon;timestamp;pressure;altitude;pressure_sealevel;temperature;humidity
73085;BME280;62974;49.460;10.892;2022-09-19T00:01:09;97542.09;;;9.54;80.05
73085;BME280;62974;49.460;10.892;2022-09-19T00:03:41;97533.38;;;9.46;80.10
73085;BME280;62974;49.460;10.892;2022-09-19T00:06:11;97535.72;;;9.14;81.58
73085;BME280;62974;49.460;10.892;2022-09-19T00:08:43;97538.50;;;9.40;80.30
73085;BME280;62974;49.460;10.892;2022-09-19T00:11:12;97542.09;;;9.54;79.50
73085;BME280;62974;49.460;10.892;2022-09-19T00:13:41;97544.03;;;9.26;80.36
73085;BME280;62974;49.460;10.892;2022-09-19T00:16:12;97551.88;;;9.34;80.08
73085;BME280;62974;49.460;10.892;2022-09-19T00:18:40;97547.19;;;9.02;81.46
73085;BME280;62974;49.460;10.892;2022-09-19T00:21:07;97554.56;;;9.34;80.64
73085;BME280;62974;49.460;10.892;2022-09-19T00:23:35;97549.03;;;9.01;81.13
73085;BME280;62974;49.460;10.892;2022-09-19T00:26:22;97554.91;;;9.18;81.19
73085;BME280;62974;49.460;10.892;2022-09-19T00:28:49;97546.63;;;8.78;82.61
73085;BME280;62974;49.460;10.892;2022-09-19T00:31:19;97543.31;;;9.11;81.36
73085;BME280;62974;49.460;10.892;2022-09-19T00:33:48;97545.66;;;8.92;82.22
73085;BME280;62974;49.460;10.892;2022-09-19T00:36:17;97535.94;;;8.85;82.18
73085;BME280;62974;49.460;10.892;2022-09-19T00:38:45;97534.13;;;8.92;82.00
73085;BME280;62974;49.460;10.892;2022-09-19T00:41:14;97540.31;;;8.92;81.44
73085;BME280;62974;49.460;10.892;2022-09-19T00:43:47;97541.03;;;8.80;81.87
73085;BME280;62974;49.460;10.892;2022-09-19T00:46:16;97549.41;;;8.21;83.99
73085;BME280;62974;49.460;10.892;2022-09-19T00:48:46;97546.94;;;8.69;83.35
73085;BME280;62974;49.460;10.892;2022-09-19T00:51:20;97539.41;;;8.79;82.09
73085;BME280;62974;49.460;10.892;2022-09-19T00:53:49;97539.28;;;8.59;82.60
73085;BME280;62974;49.460;10.892;2022-09-19T00:56:17;97535.25;;;8.76;82.44
73085;BME280;62974;49.460;10.892;2022-09-19T00:58:46;97534.44;;;9.04;81.58
73085;BME280;62974;49.460;10.892;2022-09-19T01:01:15;97541.41;;;9.05;81.27
73085;BME280;62974;49.460;10.892;2022-09-19T01:03:44;97539.72;;;8.63;83.13
73085;BME280;62974;49.460;10.892;2022-09-19T01:06:24;97548.50;;;8.57;83.34
73085;BME280;62974;49.460;10.892;2022-09-19T01:09:07;97539.44;;;8.30;84.16
73085;BME280;62974;49.460;10.892;2022-09-19T01:11:52;97548.78;;;8.40;83.71
73085;BME280;62974;49.460;10.892;2022-09-19T01:14:35;97545.50;;;8.66;82.73
73085;BME280;62974;49.460;10.892;2022-09-19T01:17:11;97560.09;;;8.64;82.89
73085;BME280;62974;49.460;10.892;2022-09-19T01:20:02;97553.16;;;8.76;82.57
73085;BME280;62974;49.460;10.892;2022-09-19T01:22:44;97548.22;;;8.73;82.80
73085;BME280;62974;49.460;10.892;2022-09-19T01:25:24;97549.84;;;9.02;81.73
73085;BME280;62974;49.460;10.892;2022-09-19T01:28:07;97554.94;;;8.90;81.62
73085;BME280;62974;49.460;10.892;2022-09-19T01:30:41;97555.56;;;8.64;82.80
73085;BME280;62974;49.460;10.892;2022-09-19T01:33:15;97554.78;;;8.42;83.62
73085;BME280;62974;49.460;10.892;2022-09-19T01:35:48;97548.31;;;8.58;83.29
73085;BME280;62974;49.460;10.892;2022-09-19T01:38:21;97559.66;;;8.18;85.17
73085;BME280;62974;49.460;10.892;2022-09-19T01:40:51;97552.34;;;8.26;85.19
73085;BME280;62974;49.460;10.892;2022-09-19T01:43:21;97560.44;;;8.54;84.10
73085;BME280;62974;49.460;10.892;2022-09-19T01:45:49;97558.00;;;8.59;83.26
73085;BME280;62974;49.460;10.892;2022-09-19T01:48:26;97566.06;;;8.38;84.56
73085;BME280;62974;49.460;10.892;2022-09-19T01:51:11;97568.91;;;8.36;84.63
73085;BME280;62974;49.460;10.892;2022-09-19T01:53:53;97572.84;;;8.40;84.94
73085;BME280;62974;49.460;10.892;2022-09-19T01:56:28;97574.44;;;8.14;86.10
73085;BME280;62974;49.460;10.892;2022-09-19T01:59:14;97576.59;;;8.25;85.83
73085;BME280;62974;49.460;10.892;2022-09-19T02:01:48;97578.38;;;8.18;86.22
73085;BME280;62974;49.460;10.892;2022-09-19T02:04:20;97571.50;;;8.09;86.90
73085;BME280;62974;49.460;10.892;2022-09-19T02:06:52;97575.97;;;8.44;85.40
73085;BME280;62974;49.460;10.892;2022-09-19T02:09:29;97574.25;;;8.36;85.21
73085;BME280;62974;49.460;10.892;2022-09-19T02:12:02;97578.44;;;8.24;85.94
73085;BME280;62974;49.460;10.892;2022-09-19T02:14:34;97570.03;;;8.48;85.52
73085;BME280;62974;49.460;10.892;2022-09-19T02:17:05;97579.16;;;8.12;87.28
73085;BME280;62974;49.460;10.892;2022-09-19T02:19:38;97565.06;;;8.24;86.64
73085;BME280;62974;49.460;10.892;2022-09-19T02:22:11;97568.03;;;8.51;85.29
73085;BME280;62974;49.460;10.892;2022-09-19T02:24:43;97558.84;;;8.38;86.30
73085;BME280;62974;49.460;10.892;2022-09-19T02:27:15;97561.19;;;8.27;86.74
73085;BME280;62974;49.460;10.892;2022-09-19T02:29:49;97578.06;;;8.27;86.83
73085;BME280;62974;49.460;10.892;2022-09-19T02:32:20;97572.97;;;8.32;86.91
73085;BME280;62974;49.460;10.892;2022-09-19T02:34:49;97580.66;;;8.21;87.54
73085;BME280;62974;49.460;10.892;2022-09-19T02:37:22;97582.84;;;8.11;88.09
73085;BME280;62974;49.460;10.892;2022-09-19T02:39:57;97581.75;;;8.05;88.01
73085;BME280;62974;49.460;10.892;2022-09-19T02:42:33;97578.06;;;8.06;88.41
73085;BME280;62974;49.460;10.892;2022-09-19T02:45:12;97579.81;;;8.35;86.56
73085;BME280;62974;49.460;10.892;2022-09-19T02:47:50;97578.97;;;8.56;86.11
73085;BME280;62974;49.460;10.892;2022-09-19T02:50:52;97590.25;;;8.51;85.92
73085;BME280;62974;49.460;10.892;2022-09-19T02:53:27;97585.06;;;8.28;87.08
73085;BME280;62974;49.460;10.892;2022-09-19T02:55:59;97581.00;;;8.32;87.06
73085;BME280;62974;49.460;10.892;2022-09-19T02:58:30;97586.84;;;8.21;88.24
73085;BME280;62974;49.460;10.892;2022-09-19T03:01:03;97599.91;;;8.10;88.78
73085;BME280;62974;49.460;10.892;2022-09-19T03:03:36;97599.44;;;8.06;88.94
73085;BME280;62974;49.460;10.892;2022-09-19T03:06:25;97600.44;;;8.41;87.62
73085;BME280;62974;49.460;10.892;2022-09-19T03:08:56;97604.69;;;8.57;86.28
73085;BME280;62974;49.460;10.892;2022-09-19T03:11:27;97588.47;;;8.37;87.54
73085;BME280;62974;49.460;10.892;2022-09-19T03:13:57;97595.44;;;8.17;88.83
73085;BME280;62974;49.460;10.892;2022-09-19T03:16:29;97596.66;;;8.14;88.83
73085;BME280;62974;49.460;10.892;2022-09-19T03:19:02;97610.09;;;8.21;88.95
73085;BME280;62974;49.460;10.892;2022-09-19T03:21:31;97605.97;;;8.18;88.85
73085;BME280;62974;49.460;10.892;2022-09-19T03:23:59;97607.59;;;8.34;88.11
73085;BME280;62974;49.460;10.892;2022-09-19T03:26:28;97617.50;;;8.61;86.15
73085;BME280;62974;49.460;10.892;2022-09-19T03:28:58;97613.63;;;8.64;86.25
73085;BME280;62974;49.460;10.892;2022-09-19T03:31:28;97616.25;;;8.57;86.49
73085;BME280;62974;49.460;10.892;2022-09-19T03:33:56;97625.47;;;8.33;88.39
73085;BME280;62974;49.460;10.892;2022-09-19T03:36:24;97623.56;;;8.27;88.90
73085;BME280;62974;49.460;10.892;2022-09-19T03:38:52;97627.28;;;8.47;87.89
73085;BME280;62974;49.460;10.892;2022-09-19T03:41:21;97625.88;;;8.52;87.76
73085;BME280;62974;49.460;10.892;2022-09-19T03:43:49;97627.47;;;8.10;90.15
73085;BME280;62974;49.460;10.892;2022-09-19T03:46:19;97628.06;;;8.27;89.46
73085;BME280;62974;49.460;10.892;2022-09-19T03:48:48;97640.69;;;8.33;88.76
73085;BME280;62974;49.460;10.892;2022-09-19T03:51:17;97633.91;;;8.16;89.64
73085;BME280;62974;49.460;10.892;2022-09-19T03:53:45;97640.00;;;8.10;90.58
73085;BME280;62974;49.460;10.892;2022-09-19T03:56:13;97635.38;;;8.18;90.50
73085;BME280;62974;49.460;10.892;2022-09-19T03:58:43;97632.13;;;8.59;87.82
73085;BME280;62974;49.460;10.892;2022-09-19T04:01:11;97649.88;;;8.45;88.34
73085;BME280;62974;49.460;10.892;2022-09-19T04:03:48;97645.78;;;8.28;89.69
73085;BME280;62974;49.460;10.892;2022-09-19T04:06:16;97638.41;;;8.30;89.69
73085;BME280;62974;49.460;10.892;2022-09-19T04:08:44;97639.59;;;8.27;89.69
73085;BME280;62974;49.460;10.892;2022-09-19T04:11:12;97651.47;;;8.25;89.76
73085;BME280;62974;49.460;10.892;2022-09-19T04:13:39;97654.53;;;8.22;90.28
73085;BME280;62974;49.460;10.892;2022-09-19T04:16:07;97654.47;;;8.30;89.86
73085;BME280;62974;49.460;10.892;2022-09-19T04:18:35;97666.81;;;8.31;89.54
73085;BME280;62974;49.460;10.892;2022-09-19T04:21:07;97665.88;;;8.38;89.35
73085;BME280;62974;49.460;10.892;2022-09-19T04:23:34;97664.66;;;8.62;87.48
73085;BME280;62974;49.460;10.892;2022-09-19T04:26:02;97672.44;;;8.57;87.93
73085;BME280;62974;49.460;10.892;2022-09-19T04:28:31;97669.28;;;8.32;89.55
73085;BME280;62974;49.460;10.892;2022-09-19T04:30:58;97669.81;;;8.42;88.93
73085;BME280;62974;49.460;10.892;2022-09-19T04:33:26;97670.56;;;8.36;89.52
73085;BME280;62974;49.460;10.892;2022-09-19T04:35:54;97677.19;;;8.40;89.34
73085;BME280;62974;49.460;10.892;2022-09-19T04:38:28;97680.47;;;8.36;89.59
73085;BME280;62974;49.460;10.892;2022-09-19T04:40:56;97685.06;;;8.27;90.43
73085;BME280;62974;49.460;10.892;2022-09-19T04:43:25;97683.22;;;8.28;90.19
73085;BME280;62974;49.460;10.892;2022-09-19T04:45:53;97685.56;;;8.31;90.34
73085;BME280;62974;49.460;10.892;2022-09-19T04:48:22;97698.56;;;8.19;90.92
73085;BME280;62974;49.460;10.892;2022-09-19T04:50:51;97692.38;;;8.19;90.90
73085;BME280;62974;49.460;10.892;2022-09-19T04:53:21;97692.00;;;8.22;91.48
73085;BME280;62974;49.460;10.892;2022-09-19T04:55:52;97694.03;;;8.20;90.93
73085;BME280;62974;49.460;10.892;2022-09-19T04:58:21;97690.06;;;8.30;90.87
73085;BME280;62974;49.460;10.892;2022-09-19T05:00:49;97699.75;;;8.31;90.50
73085;BME280;62974;49.460;10.892;2022-09-19T05:03:20;97703.81;;;8.27;91.25
73085;BME280;62974;49.460;10.892;2022-09-19T05:05:52;97699.53;;;8.47;90.08
73085;BME280;62974;49.460;10.892;2022-09-19T05:08:21;97709.47;;;8.54;89.19
73085;BME280;62974;49.460;10.892;2022-09-19T05:10:53;97723.03;;;8.52;89.79
73085;BME280;62974;49.460;10.892;2022-09-19T05:13:22;97714.53;;;8.48;89.64
73085;BME280;62974;49.460;10.892;2022-09-19T05:15:50;97712.69;;;8.49;89.69
73085;BME280;62974;49.460;10.892;2022-09-19T05:18:17;97726.34;;;8.54;89.74
73085;BME280;62974;49.460;10.892;2022-09-19T05:20:46;97722.06;;;8.38;90.53
73085;BME280;62974;49.460;10.892;2022-09-19T05:23:14;97734.22;;;8.41;90.83
73085;BME280;62974;49.460;10.892;2022-09-19T05:25:42;97721.44;;;8.58;89.37
73085;BME280;62974;49.460;10.892;2022-09-19T05:28:11;97739.47;;;8.49;90.12
73085;BME280;62974;49.460;10.892;2022-09-19T05:30:45;97738.38;;;8.43;90.89
73085;BME280;62974;49.460;10.892;2022-09-19T05:33:13;97738.44;;;8.50;90.33
73085;BME280;62974;49.460;10.892;2022-09-19T05:35:41;97750.84;;;8.36;91.87
73085;BME280;62974;49.460;10.892;2022-09-19T05:38:09;97744.69;;;8.36;91.86
73085;BME280;62974;49.460;10.892;2022-09-19T05:40:36;97742.69;;;8.44;91.55
73085;BME280;62974;49.460;10.892;2022-09-19T05:43:04;97744.78;;;8.64;89.56
73085;BME280;62974;49.460;10.892;2022-09-19T05:45:33;97757.06;;;8.58;90.24
73085;BME280;62974;49.460;10.892;2022-09-19T05:48:01;97754.34;;;8.52;90.86
73085;BME280;62974;49.460;10.892;2022-09-19T05:50:30;97765.59;;;8.47;90.96
73085;BME280;62974;49.460;10.892;2022-09-19T05:52:58;97764.84;;;8.53;90.72
73085;BME280;62974;49.460;10.892;2022-09-19T05:55:43;97764.81;;;8.68;90.11
73085;BME280;62974;49.460;10.892;2022-09-19T05:58:12;97781.91;;;8.52;90.70
73085;BME280;62974;49.460;10.892;2022-09-19T06:00:43;97788.75;;;8.55;91.34
73085;BME280;62974;49.460;10.892;2022-09-19T06:03:12;97785.94;;;8.63;90.00
73085;BME280;62974;49.460;10.892;2022-09-19T06:05:43;97790.53;;;8.69;90.52
73085;BME280;62974;49.460;10.892;2022-09-19T06:08:12;97788.97;;;8.74;89.80
73085;BME280;62974;49.460;10.892;2022-09-19T06:10:41;97790.28;;;8.64;90.44
73085;BME280;62974;49.460;10.892;2022-09-19T06:13:16;97792.13;;;8.63;90.39
73085;BME280;62974;49.460;10.892;2022-09-19T06:15:46;97807.09;;;8.58;90.97
73085;BME280;62974;49.460;10.892;2022-09-19T06:18:14;97806.72;;;8.61;91.03
73085;BME280;62974;49.460;10.892;2022-09-19T06:20:43;97811.44;;;8.59;91.33
73085;BME280;62974;49.460;10.892;2022-09-19T06:23:11;97825.81;;;8.58;91.34
73085;BME280;62974;49.460;10.892;2022-09-19T06:25:39;97816.91;;;8.51;91.93
73085;BME280;62974;49.460;10.892;2022-09-19T06:28:10;97817.31;;;8.69;90.59
73085;BME280;62974;49.460;10.892;2022-09-19T06:30:38;97812.22;;;8.74;90.59
73085;BME280;62974;49.460;10.892;2022-09-19T06:33:07;97810.22;;;8.61;91.85
73085;BME280;62974;49.460;10.892;2022-09-19T06:35:36;97823.69;;;8.68;91.82
73085;BME280;62974;49.460;10.892;2022-09-19T06:38:04;97826.44;;;8.74;91.07
73085;BME280;62974;49.460;10.892;2022-09-19T06:40:32;97830.84;;;8.82;90.95
73085;BME280;62974;49.460;10.892;2022-09-19T06:43:02;97841.00;;;8.86;91.04
73085;BME280;62974;49.460;10.892;2022-09-19T06:45:31;97840.28;;;8.78;91.61
73085;BME280;62974;49.460;10.892;2022-09-19T06:48:01;97856.06;;;8.73;92.11
73085;BME280;62974;49.460;10.892;2022-09-19T06:50:30;97844.41;;;8.80;91.15
73085;BME280;62974;49.460;10.892;2022-09-19T06:52:58;97852.91;;;8.84;90.88
73085;BME280;62974;49.460;10.892;2022-09-19T06:55:27;97860.88;;;8.77;91.68
73085;BME280;62974;49.460;10.892;2022-09-19T06:57:56;97858.75;;;8.87;90.98
73085;BME280;62974;49.460;10.892;2022-09-19T07:00:26;97859.53;;;8.88;91.32
73085;BME280;62974;49.460;10.892;2022-09-19T07:02:58;97862.31;;;8.80;91.47
73085;BME280;62974;49.460;10.892;2022-09-19T07:05:27;97871.09;;;8.88;91.13
73085;BME280;62974;49.460;10.892;2022-09-19T07:07:58;97871.63;;;8.99;90.19
73085;BME280;62974;49.460;10.892;2022-09-19T07:10:26;97871.38;;;8.93;91.78
73085;BME280;62974;49.460;10.892;2022-09-19T07:12:56;97876.16;;;8.98;90.79
73085;BME280;62974;49.460;10.892;2022-09-19T07:15:27;97879.13;;;8.88;91.92
73085;BME280;62974;49.460;10.892;2022-09-19T07:17:56;97876.28;;;8.90;92.00
73085;BME280;62974;49.460;10.892;2022-09-19T07:20:24;97880.78;;;8.89;91.64
73085;BME280;62974;49.460;10.892;2022-09-19T07:23:02;97885.13;;;8.90;91.53
73085;BME280;62974;49.460;10.892;2022-09-19T07:25:33;97880.28;;;9.01;90.84
73085;BME280;62974;49.460;10.892;2022-09-19T07:28:03;97878.44;;;9.01;90.90
73085;BME280;62974;49.460;10.892;2022-09-19T07:30:33;97887.22;;;9.10;90.73
73085;BME280;62974;49.460;10.892;2022-09-19T07:33:03;97892.63;;;9.16;90.96
73085;BME280;62974;49.460;10.892;2022-09-19T07:35:33;97890.34;;;9.13;90.60
73085;BME280;62974;49.460;10.892;2022-09-19T07:38:03;97889.59;;;9.19;90.40
73085;BME280;62974;49.460;10.892;2022-09-19T07:40:33;97906.28;;;9.21;90.25
73085;BME280;62974;49.460;10.892;2022-09-19T07:43:02;97910.31;;;9.11;91.41
73085;BME280;62974;49.460;10.892;2022-09-19T07:45:33;97911.28;;;9.24;90.41
73085;BME280;62974;49.460;10.892;2022-09-19T07:48:01;97907.75;;;9.24;90.73
73085;BME280;62974;49.460;10.892;2022-09-19T07:50:30;97916.44;;;9.26;90.92
73085;BME280;62974;49.460;10.892;2022-09-19T07:52:58;97918.13;;;9.27;90.15
73085;BME280;62974;49.460;10.892;2022-09-19T07:55:28;97920.28;;;9.38;89.63
73085;BME280;62974;49.460;10.892;2022-09-19T07:57:57;97930.19;;;9.37;89.69
73085;BME280;62974;49.460;10.892;2022-09-19T08:00:26;97932.34;;;9.49;89.56
73085;BME280;62974;49.460;10.892;2022-09-19T08:02:55;97932.91;;;9.44;89.74
73085;BME280;62974;49.460;10.892;2022-09-19T08:05:24;97937.84;;;9.40;89.59
73085;BME280;62974;49.460;10.892;2022-09-19T08:07:52;97943.66;;;9.44;90.40
73085;BME280;62974;49.460;10.892;2022-09-19T08:10:20;97946.16;;;9.46;89.73
73085;BME280;62974;49.460;10.892;2022-09-19T08:12:49;97946.19;;;9.52;89.49
73085;BME280;62974;49.460;10.892;2022-09-19T08:15:18;97954.97;;;9.61;89.12
73085;BME280;62974;49.460;10.892;2022-09-19T08:17:56;97957.06;;;9.65;88.70
73085;BME280;62974;49.460;10.892;2022-09-19T08:20:25;97953.56;;;9.65;89.29
73085;BME280;62974;49.460;10.892;2022-09-19T08:22:56;97951.66;;;9.59;89.56
73085;BME280;62974;49.460;10.892;2022-09-19T08:25:25;97957.25;;;9.64;89.05
73085;BME280;62974;49.460;10.892;2022-09-19T08:27:54;97961.16;;;9.61;89.07
73085;BME280;62974;49.460;10.892;2022-09-19T08:30:23;97959.38;;;9.68;88.90
73085;BME280;62974;49.460;10.892;2022-09-19T08:32:51;97965.63;;;9.75;88.58
73085;BME280;62974;49.460;10.892;2022-09-19T08:35:19;97963.19;;;9.80;88.26
73085;BME280;62974;49.460;10.892;2022-09-19T08:37:52;97953.84;;;9.91;88.25
73085;BME280;62974;49.460;10.892;2022-09-19T08:40:24;97958.41;;;9.97;88.41
73085;BME280;62974;49.460;10.892;2022-09-19T08:43:01;97965.25;;;10.00;87.84
73085;BME280;62974;49.460;10.892;2022-09-19T08:45:47;97973.06;;;10.16;87.54
73085;BME280;62974;49.460;10.892;2022-09-19T08:48:23;97976.94;;;10.13;87.13
73085;BME280;62974;49.460;10.892;2022-09-19T08:50:56;97980.44;;;10.14;88.00
73085;BME280;62974;49.460;10.892;2022-09-19T08:53:30;97990.44;;;9.99;86.75
73085;BME280;62974;49.460;10.892;2022-09-19T08:56:00;97997.44;;;10.00;87.63
73085;BME280;62974;49.460;10.892;2022-09-19T08:58:31;97986.97;;;10.05;87.84
73085;BME280;62974;49.460;10.892;2022-09-19T09:01:04;97989.16;;;10.16;87.48
73085;BME280;62974;49.460;10.892;2022-09-19T09:03:37;97991.34;;;10.27;87.42
73085;BME280;62974;49.460;10.892;2022-09-19T09:06:17;97996.06;;;10.25;86.60
73085;BME280;62974;49.460;10.892;2022-09-19T09:08:54;98001.72;;;10.36;86.96
73085;BME280;62974;49.460;10.892;2022-09-19T09:11:37;98000.97;;;10.43;86.84
73085;BME280;62974;49.460;10.892;2022-09-19T09:14:19;98002.94;;;10.34;86.80
73085;BME280;62974;49.460;10.892;2022-09-19T09:17:00;98013.44;;;10.29;86.57
73085;BME280;62974;49.460;10.892;2022-09-19T09:19:54;98020.13;;;10.40;87.59
73085;BME280;62974;49.460;10.892;2022-09-19T09:22:27;98015.19;;;10.43;86.84
73085;BME280;62974;49.460;10.892;2022-09-19T09:25:04;98014.16;;;10.44;86.91
73085;BME280;62974;49.460;10.892;2022-09-19T09:27:40;98029.84;;;10.41;86.65
73085;BME280;62974;49.460;10.892;2022-09-19T09:30:13;98024.66;;;10.39;86.35
73085;BME280;62974;49.460;10.892;2022-09-19T09:32:45;98015.41;;;10.42;86.46
73085;BME280;62974;49.460;10.892;2022-09-19T09:35:26;98025.94;;;10.43;86.63
73085;BME280;62974;49.460;10.892;2022-09-19T09:37:59;98017.81;;;10.36;87.09
73085;BME280;62974;49.460;10.892;2022-09-19T09:40:38;98023.00;;;10.38;86.94
73085;BME280;62974;49.460;10.892;2022-09-19T09:43:29;98023.72;;;10.47;86.92
73085;BME280;62974;49.460;10.892;2022-09-19T09:46:05;98023.94;;;10.52;86.56
73085;BME280;62974;49.460;10.892;2022-09-19T09:48:38;98027.84;;;10.49;86.49
73085;BME280;62974;49.460;10.892;2022-09-19T09:51:19;98027.16;;;10.41;86.35
73085;BME280;62974;49.460;10.892;2022-09-19T09:54:01;98030.78;;;10.54;86.75
73085;BME280;62974;49.460;10.892;2022-09-19T09:56:37;98023.44;;;10.63;86.04
73085;BME280;62974;49.460;10.892;2022-09-19T09:59:26;98027.66;;;10.78;86.16
73085;BME280;62974;49.460;10.892;2022-09-19T10:02:24;98027.88;;;10.83;85.97
73085;BME280;62974;49.460;10.892;2022-09-19T10:05:15;98026.25;;;10.82;85.67
73085;BME280;62974;49.460;10.892;2022-09-19T10:07:52;98028.53;;;10.86;84.87
73085;BME280;62974;49.460;10.892;2022-09-19T10:10:26;98021.94;;;10.88;84.83
73085;BME280;62974;49.460;10.892;2022-09-19T10:12:58;98025.25;;;10.90;84.01
73085;BME280;62974;49.460;10.892;2022-09-19T10:15:28;98019.91;;;10.90;84.63
73085;BME280;62974;49.460;10.892;2022-09-19T10:18:02;98029.84;;;10.96;85.26
73085;BME280;62974;49.460;10.892;2022-09-19T10:20:37;98026.91;;;10.91;85.38
73085;BME280;62974;49.460;10.892;2022-09-19T10:23:12;98034.78;;;10.93;85.69
73085;BME280;62974;49.460;10.892;2022-09-19T10:25:41;98029.41;;;10.93;86.34
73085;BME280;62974;49.460;10.892;2022-09-19T10:28:16;98035.56;;;10.87;85.24
73085;BME280;62974;49.460;10.892;2022-09-19T10:30:54;98041.81;;;10.94;85.31
73085;BME280;62974;49.460;10.892;2022-09-19T10:33:28;98036.50;;;11.07;84.98
73085;BME280;62974;49.460;10.892;2022-09-19T10:36:07;98041.38;;;11.24;85.12
73085;BME280;62974;49.460;10.892;2022-09-19T10:38:49;98046.34;;;11.27;84.92
73085;BME280;62974;49.460;10.892;2022-09-19T10:41:18;98044.41;;;11.15;85.10
73085;BME280;62974;49.460;10.892;2022-09-19T10:43:50;98040.91;;;11.14;86.25
73085;BME280;62974;49.460;10.892;2022-09-19T10:46:20;98043.22;;;11.17;86.51
73085;BME280;62974;49.460;10.892;2022-09-19T10:48:53;98037.59;;;11.19;86.92
73085;BME280;62974;49.460;10.892;2022-09-19T10:51:27;98040.09;;;11.14;87.02
73085;BME280;62974;49.460;10.892;2022-09-19T10:53:59;98043.97;;;11.11;86.59
73085;BME280;62974;49.460;10.892;2022-09-19T10:56:29;98048.59;;;11.17;86.05
73085;BME280;62974;49.460;10.892;2022-09-19T10:59:02;98046.31;;;11.21;86.22
73085;BME280;62974;49.460;10.892;2022-09-19T11:01:32;98047.31;;;11.13;84.72
73085;BME280;62974;49.460;10.892;2022-09-19T11:04:03;98053.13;;;11.17;84.79
73085;BME280;62974;49.460;10.892;2022-09-19T11:06:33;98051.28;;;11.17;84.75
73085;BME280;62974;49.460;10.892;2022-09-19T11:09:06;98048.59;;;11.17;84.69
73085;BME280;62974;49.460;10.892;2022-09-19T11:11:35;98056.41;;;11.12;85.08
73085;BME280;62974;49.460;10.892;2022-09-19T11:14:15;98048.16;;;11.14;85.11
73085;BME280;62974;49.460;10.892;2022-09-19T11:17:20;98052.88;;;11.12;85.60
73085;BME280;62974;49.460;10.892;2022-09-19T11:20:13;98059.34;;;11.17;86.00
73085;BME280;62974;49.460;10.892;2022-09-19T11:22:56;98051.28;;;11.24;85.66
73085;BME280;62974;49.460;10.892;2022-09-19T11:25:48;98057.19;;;11.41;85.83
73085;BME280;62974;49.460;10.892;2022-09-19T11:28:29;98051.38;;;11.37;85.31
73085;BME280;62974;49.460;10.892;2022-09-19T11:31:09;98053.63;;;11.34;84.32
73085;BME280;62974;49.460;10.892;2022-09-19T11:34:04;98047.41;;;11.33;83.62
73085;BME280;62974;49.460;10.892;2022-09-19T11:37:05;98054.22;;;11.29;83.80
73085;BME280;62974;49.460;10.892;2022-09-19T11:39:51;98049.19;;;11.19;83.30
73085;BME280;62974;49.460;10.892;2022-09-19T11:42:33;98051.94;;;11.26;83.81
73085;BME280;62974;49.460;10.892;2022-09-19T11:45:10;98059.19;;;11.32;83.64
73085;BME280;62974;49.460;10.892;2022-09-19T11:48:01;98051.78;;;11.34;83.29
73085;BME280;62974;49.460;10.892;2022-09-19T11:50:45;98057.19;;;11.41;83.22
73085;BME280;62974;49.460;10.892;2022-09-19T11:53:39;98055.31;;;11.41;82.83
73085;BME280;62974;49.460;10.892;2022-09-19T11:56:19;98053.50;;;11.48;83.81
73085;BME280;62974;49.460;10.892;2022-09-19T11:59:00;98048.78;;;11.63;83.43
73085;BME280;62974;49.460;10.892;2022-09-19T12:01:36;98046.91;;;11.57;83.27
73085;BME280;62974;49.460;10.892;2022-09-19T12:04:17;98044.81;;;11.53;82.69
73085;BME280;62974;49.460;10.892;2022-09-19T12:07:07;98044.84;;;11.59;82.55
73085;BME280;62974;49.460;10.892;2022-09-19T12:09:42;98046.94;;;11.64;82.42
73085;BME280;62974;49.460;10.892;2022-09-19T12:12:18;98041.13;;;11.60;81.50
73085;BME280;62974;49.460;10.892;2022-09-19T12:14:49;98044.34;;;11.77;80.81
73085;BME280;62974;49.460;10.892;2022-09-19T12:17:21;98034.84;;;11.88;81.09
73085;BME280;62974;49.460;10.892;2022-09-19T12:19:57;98029.28;;;12.02;80.81
73085;BME280;62974;49.460;10.892;2022-09-19T12:22:29;98020.22;;;12.10;80.05
73085;BME280;62974;49.460;10.892;2022-09-19T12:25:05;98022.47;;;12.19;79.38
73085;BME280;62974;49.460;10.892;2022-09-19T12:27:37;98019.41;;;12.29;79.07
73085;BME280;62974;49.460;10.892;2022-09-19T12:30:13;98022.28;;;12.28;78.72
73085;BME280;62974;49.460;10.892;2022-09-19T12:32:47;98014.63;;;12.24;78.90
73085;BME280;62974;49.460;10.892;2022-09-19T12:35:22;98008.81;;;12.28;77.89
73085;BME280;62974;49.460;10.892;2022-09-19T12:38:00;98001.16;;;12.44;77.87
73085;BME280;62974;49.460;10.892;2022-09-19T12:40:42;98006.34;;;12.46;77.19
73085;BME280;62974;49.460;10.892;2022-09-19T12:43:20;98000.53;;;12.49;76.29
73085;BME280;62974;49.460;10.892;2022-09-19T12:45:57;98002.41;;;12.42;76.65
73085;BME280;62974;49.460;10.892;2022-09-19T12:48:35;97995.78;;;12.18;77.02
73085;BME280;62974;49.460;10.892;2022-09-19T12:51:08;97998.06;;;12.41;77.76
73085;BME280;62974;49.460;10.892;2022-09-19T12:53:42;97997.63;;;12.63;78.32
73085;BME280;62974;49.460;10.892;2022-09-19T12:56:16;98006.72;;;12.82;78.18
73085;BME280;62974;49.460;10.892;2022-09-19T12:58:53;98005.09;;;12.81;76.33
73085;BME280;62974;49.460;10.892;2022-09-19T13:01:35;98007.78;;;12.81;75.59
73085;BME280;62974;49.460;10.892;2022-09-19T13:04:14;97995.34;;;12.60;75.01
73085;BME280;62974;49.460;10.892;2022-09-19T13:06:59;97990.81;;;12.61;77.83
73085;BME280;62974;49.460;10.892;2022-09-19T13:09:31;97992.88;;;12.65;77.71
73085;BME280;62974;49.460;10.892;2022-09-19T13:12:06;97991.63;;;12.55;78.65
73085;BME280;62974;49.460;10.892;2022-09-19T13:14:44;97987.72;;;12.38;78.82
73085;BME280;62974;49.460;10.892;2022-09-19T13:17:14;97991.84;;;12.40;79.47
73085;BME280;62974;49.460;10.892;2022-09-19T13:20:00;97985.22;;;12.36;80.63
73085;BME280;62974;49.460;10.892;2022-09-19T13:22:47;97996.56;;;12.18;80.15
73085;BME280;62974;49.460;10.892;2022-09-19T13:25:33;98011.50;;;12.08;81.84
73085;BME280;62974;49.460;10.892;2022-09-19T13:28:26;98021.81;;;11.91;83.99
73085;BME280;62974;49.460;10.892;2022-09-19T13:31:07;98036.91;;;11.38;85.74